sensor_id;sensor_type;location;lat;lon;timestamp;P1;durP1;ratioP1;P2;durP2;ratioP2
71821;SDS011;64096;52.548;13.406;2023-12-04T06:02:13;30.13;;;19.98;;
71821;SDS011;64096;52.548;13.406;2023-12-04T06:04:40;22.75;;;15.32;;
71821;SDS011;64096;52.548;13.406;2023-12-04T06:07:08;20.63;;;14.50;;
71821;SDS011;64096;52.548;13.406;2023-12-04T06:09:34;21.23;;;14.23;;
71821;SDS011;64096;52.548;13.406;2023-12-04T06:12:02;20.45;;;13.38;;
71821;SDS011;64096;52.548;13.406;2023-12-04T06:14:33;19.85;;;13.63;;
71821;SDS011;64096;52.548;13.406;2023-12-04T06:17:00;21.92;;;14.73;;
71821;SDS011;64096;52.548;13.406;2023-12-04T06:19:27;20.52;;;13.85;;
71821;SDS011;64096;52.548;13.406;2023-12-04T06:21:54;21.73;;;14.05;;
71821;SDS011;64096;52.548;13.406;2023-12-04T06:24:20;21.73;;;14.18;;
71821;SDS011;64096;52.548;13.406;2023-12-04T06:26:47;20.30;;;13.55;;
71821;SDS011;64096;52.548;13.406;2023-12-04T06:29:15;20.40;;;13.73;;
71821;SDS011;64096;52.548;13.406;2023-12-04T06:31:41;20.05;;;12.60;;
71821;SDS011;64096;52.548;13.406;2023-12-04T06:34:08;19.67;;;13.43;;
71821;SDS011;64096;52.548;13.406;2023-12-04T06:36:35;22.20;;;13.82;;
71821;SDS011;64096;52.548;13.406;2023-12-04T06:39:03;22.05;;;14.80;;
71821;SDS011;64096;52.548;13.406;2023-12-04T06:41:30;19.00;;;13.13;;
71821;SDS011;64096;52.548;13.406;2023-12-04T06:43:56;22.02;;;14.27;;
71821;SDS011;64096;52.548;13.406;2023-12-04T06:46:22;20.85;;;13.30;;
71821;SDS011;64096;52.548;13.406;2023-12-04T06:48:49;21.85;;;14.68;;
71821;SDS011;64096;52.548;13.406;2023-12-04T06:51:17;19.73;;;13.73;;
71821;SDS011;64096;52.548;13.406;2023-12-04T06:53:43;20.33;;;14.05;;
71821;SDS011;64096;52.548;13.406;2023-12-04T06:56:09;19.15;;;13.27;;
71821;SDS011;64096;52.548;13.406;2023-12-04T06:58:35;20.40;;;13.43;;
71821;SDS011;64096;52.548;13.406;2023-12-04T07:01:01;19.05;;;12.80;;
71821;SDS011;64096;52.548;13.406;2023-12-04T07:03:28;19.92;;;13.70;;
71821;SDS011;64096;52.548;13.406;2023-12-04T07:05:54;19.52;;;12.70;;
71821;SDS011;64096;52.548;13.406;2023-12-04T07:08:20;21.05;;;14.10;;
71821;SDS011;64096;52.548;13.406;2023-12-04T07:10:46;19.65;;;13.35;;
71821;SDS011;64096;52.548;13.406;2023-12-04T07:13:13;19.92;;;13.02;;
71821;SDS011;64096;52.548;13.406;2023-12-04T07:15:40;20.85;;;14.02;;
71821;SDS011;64096;52.548;13.406;2023-12-04T07:18:06;19.23;;;12.90;;
71821;SDS011;64096;52.548;13.406;2023-12-04T07:20:32;17.77;;;12.27;;
71821;SDS011;64096;52.548;13.406;2023-12-04T07:22:58;19.45;;;12.73;;
71821;SDS011;64096;52.548;13.406;2023-12-04T07:25:24;19.25;;;12.80;;
71821;SDS011;64096;52.548;13.406;2023-12-04T07:27:51;17.40;;;12.23;;
71821;SDS011;64096;52.548;13.406;2023-12-04T07:30:17;18.90;;;13.07;;
71821;SDS011;64096;52.548;13.406;2023-12-04T07:32:43;18.58;;;12.90;;
71821;SDS011;64096;52.548;13.406;2023-12-04T07:35:09;19.58;;;13.18;;
71821;SDS011;64096;52.548;13.406;2023-12-04T07:37:35;19.95;;;13.00;;
71821;SDS011;64096;52.548;13.406;2023-12-04T07:40:01;18.92;;;12.98;;
71821;SDS011;64096;52.548;13.406;2023-12-04T07:42:28;18.70;;;12.45;;
71821;SDS011;64096;52.548;13.406;2023-12-04T07:44:55;22.02;;;14.43;;
71821;SDS011;64096;52.548;13.406;2023-12-04T07:47:21;19.75;;;13.45;;
71821;SDS011;64096;52.548;13.406;2023-12-04T07:49:47;19.25;;;13.50;;
71821;SDS011;64096;52.548;13.406;2023-12-04T07:52:13;19.92;;;12.95;;
71821;SDS011;64096;52.548;13.406;2023-12-04T07:54:39;21.17;;;13.63;;
71821;SDS011;64096;52.548;13.406;2023-12-04T07:57:05;20.70;;;14.13;;
71821;SDS011;64096;52.548;13.406;2023-12-04T07:59:31;19.33;;;13.35;;
71821;SDS011;64096;52.548;13.406;2023-12-04T08:01:57;19.15;;;12.63;;
71821;SDS011;64096;52.548;13.406;2023-12-04T08:04:23;20.42;;;12.50;;
71821;SDS011;64096;52.548;13.406;2023-12-04T08:06:49;18.33;;;12.63;;
71821;SDS011;64096;52.548;13.406;2023-12-04T08:09:16;20.05;;;13.55;;
71821;SDS011;64096;52.548;13.406;2023-12-04T08:11:42;18.65;;;12.63;;
71821;SDS011;64096;52.548;13.406;2023-12-04T08:14:08;21.40;;;14.13;;
71821;SDS011;64096;52.548;13.406;2023-12-04T08:16:34;21.23;;;13.27;;
71821;SDS011;64096;52.548;13.406;2023-12-04T08:19:00;18.13;;;11.70;;
71821;SDS011;64096;52.548;13.406;2023-12-04T08:21:26;19.55;;;13.57;;
71821;SDS011;64096;52.548;13.406;2023-12-04T08:23:52;16.08;;;11.57;;
71821;SDS011;64096;52.548;13.406;2023-12-04T08:26:22;18.17;;;12.95;;
71821;SDS011;64096;52.548;13.406;2023-12-04T08:28:49;17.55;;;12.07;;
71821;SDS011;64096;52.548;13.406;2023-12-04T08:31:15;18.48;;;12.23;;
71821;SDS011;64096;52.548;13.406;2023-12-04T08:33:42;23.27;;;14.55;;
71821;SDS011;64096;52.548;13.406;2023-12-04T08:36:09;18.02;;;12.30;;
71821;SDS011;64096;52.548;13.406;2023-12-04T08:38:35;18.25;;;13.02;;
71821;SDS011;64096;52.548;13.406;2023-12-04T08:41:01;16.85;;;11.80;;
71821;SDS011;64096;52.548;13.406;2023-12-04T08:43:28;20.35;;;14.23;;
71821;SDS011;64096;52.548;13.406;2023-12-04T08:45:54;21.92;;;15.75;;
71821;SDS011;64096;52.548;13.406;2023-12-04T08:48:20;20.42;;;15.10;;
71821;SDS011;64096;52.548;13.406;2023-12-04T08:50:47;16.77;;;12.35;;
71821;SDS011;64096;52.548;13.406;2023-12-04T08:53:13;17.95;;;12.40;;
71821;SDS011;64096;52.548;13.406;2023-12-04T08:55:39;18.23;;;12.18;;
71821;SDS011;64096;52.548;13.406;2023-12-04T08:58:05;16.50;;;11.55;;
71821;SDS011;64096;52.548;13.406;2023-12-04T09:00:32;19.70;;;12.80;;
71821;SDS011;64096;52.548;13.406;2023-12-04T09:02:59;17.35;;;12.68;;
71821;SDS011;64096;52.548;13.406;2023-12-04T09:05:25;19.33;;;12.88;;
71821;SDS011;64096;52.548;13.406;2023-12-04T09:07:51;16.90;;;11.93;;
71821;SDS011;64096;52.548;13.406;2023-12-04T09:10:18;15.63;;;10.57;;
71821;SDS011;64096;52.548;13.406;2023-12-04T09:12:44;18.33;;;11.60;;
71821;SDS011;64096;52.548;13.406;2023-12-04T09:15:10;18.90;;;12.48;;
71821;SDS011;64096;52.548;13.406;2023-12-04T09:17:36;19.30;;;13.00;;
71821;SDS011;64096;52.548;13.406;2023-12-04T09:20:04;17.67;;;12.77;;
71821;SDS011;64096;52.548;13.406;2023-12-04T09:22:31;17.65;;;11.75;;
71821;SDS011;64096;52.548;13.406;2023-12-04T09:24:57;17.45;;;11.25;;
71821;SDS011;64096;52.548;13.406;2023-12-04T09:27:23;18.08;;;12.27;;
71821;SDS011;64096;52.548;13.406;2023-12-04T09:29:49;17.73;;;12.20;;
71821;SDS011;64096;52.548;13.406;2023-12-04T09:32:15;17.77;;;11.88;;
71821;SDS011;64096;52.548;13.406;2023-12-04T09:34:41;15.93;;;11.20;;
71821;SDS011;64096;52.548;13.406;2023-12-04T09:37:07;17.30;;;11.45;;
71821;SDS011;64096;52.548;13.406;2023-12-04T09:39:33;16.42;;;11.55;;
71821;SDS011;64096;52.548;13.406;2023-12-04T09:41:59;17.95;;;12.00;;
71821;SDS011;64096;52.548;13.406;2023-12-04T09:44:26;16.58;;;11.55;;
71821;SDS011;64096;52.548;13.406;2023-12-04T09:46:54;16.30;;;10.63;;
71821;SDS011;64096;52.548;13.406;2023-12-04T09:49:20;15.48;;;11.02;;
71821;SDS011;64096;52.548;13.406;2023-12-04T09:51:47;17.00;;;11.55;;
71821;SDS011;64096;52.548;13.406;2023-12-04T09:54:14;15.65;;;10.68;;
71821;SDS011;64096;52.548;13.406;2023-12-04T09:56:44;15.57;;;10.73;;
71821;SDS011;64096;52.548;13.406;2023-12-04T09:59:10;16.77;;;11.40;;
71821;SDS011;64096;52.548;13.406;2023-12-04T10:01:40;15.88;;;11.18;;
71821;SDS011;64096;52.548;13.406;2023-12-04T10:04:06;15.57;;;10.48;;
71821;SDS011;64096;52.548;13.406;2023-12-04T10:06:32;16.02;;;11.57;;
71821;SDS011;64096;52.548;13.406;2023-12-04T10:08:59;18.63;;;11.93;;
71821;SDS011;64096;52.548;13.406;2023-12-04T10:11:25;16.30;;;10.80;;
71821;SDS011;64096;52.548;13.406;2023-12-04T10:13:55;15.00;;;10.23;;
71821;SDS011;64096;52.548;13.406;2023-12-04T10:16:34;15.73;;;10.40;;
71821;SDS011;64096;52.548;13.406;2023-12-04T10:21:46;14.85;;;10.00;;
71821;SDS011;64096;52.548;13.406;2023-12-04T10:24:26;15.07;;;10.43;;
71821;SDS011;64096;52.548;13.406;2023-12-04T10:26:52;17.40;;;10.85;;
71821;SDS011;64096;52.548;13.406;2023-12-04T10:29:19;15.35;;;10.48;;
71821;SDS011;64096;52.548;13.406;2023-12-04T10:31:49;16.00;;;11.40;;
71821;SDS011;64096;52.548;13.406;2023-12-04T10:34:16;17.55;;;11.68;;
71821;SDS011;64096;52.548;13.406;2023-12-04T10:36:42;18.00;;;11.32;;
71821;SDS011;64096;52.548;13.406;2023-12-04T10:39:10;16.60;;;10.98;;
71821;SDS011;64096;52.548;13.406;2023-12-04T10:41:38;16.63;;;11.10;;
71821;SDS011;64096;52.548;13.406;2023-12-04T10:44:04;17.13;;;11.13;;
71821;SDS011;64096;52.548;13.406;2023-12-04T10:46:40;16.65;;;11.05;;
71821;SDS011;64096;52.548;13.406;2023-12-04T10:49:07;16.00;;;11.68;;
71821;SDS011;64096;52.548;13.406;2023-12-04T10:51:35;18.70;;;11.93;;
71821;SDS011;64096;52.548;13.406;2023-12-04T10:54:01;15.48;;;10.73;;
71821;SDS011;64096;52.548;13.406;2023-12-04T10:56:36;16.55;;;10.80;;
71821;SDS011;64096;52.548;13.406;2023-12-04T10:59:10;13.60;;;9.68;;
71821;SDS011;64096;52.548;13.406;2023-12-04T11:01:41;15.13;;;10.40;;
71821;SDS011;64096;52.548;13.406;2023-12-04T11:04:08;15.73;;;11.20;;
71821;SDS011;64096;52.548;13.406;2023-12-04T11:06:39;16.23;;;10.40;;
71821;SDS011;64096;52.548;13.406;2023-12-04T11:09:05;15.45;;;10.43;;
71821;SDS011;64096;52.548;13.406;2023-12-04T11:11:31;14.15;;;9.68;;
71821;SDS011;64096;52.548;13.406;2023-12-04T11:14:01;13.60;;;9.07;;
71821;SDS011;64096;52.548;13.406;2023-12-04T11:19:18;14.45;;;9.98;;
71821;SDS011;64096;52.548;13.406;2023-12-04T11:21:45;14.95;;;10.00;;
71821;SDS011;64096;52.548;13.406;2023-12-04T11:24:11;14.00;;;9.18;;
71821;SDS011;64096;52.548;13.406;2023-12-04T11:26:38;18.13;;;11.98;;
71821;SDS011;64096;52.548;13.406;2023-12-04T11:29:05;13.10;;;9.43;;
71821;SDS011;64096;52.548;13.406;2023-12-04T11:31:34;12.18;;;8.57;;
71821;SDS011;64096;52.548;13.406;2023-12-04T11:34:03;11.85;;;8.45;;
71821;SDS011;64096;52.548;13.406;2023-12-04T11:36:30;12.85;;;8.75;;
71821;SDS011;64096;52.548;13.406;2023-12-04T11:38:56;12.90;;;9.10;;
71821;SDS011;64096;52.548;13.406;2023-12-04T11:41:23;15.20;;;9.60;;
71821;SDS011;64096;52.548;13.406;2023-12-04T11:43:50;13.98;;;9.52;;
71821;SDS011;64096;52.548;13.406;2023-12-04T11:46:23;14.73;;;9.43;;
71821;SDS011;64096;52.548;13.406;2023-12-04T11:48:50;11.95;;;8.38;;
71821;SDS011;64096;52.548;13.406;2023-12-04T11:54:01;14.75;;;10.40;;
71821;SDS011;64096;52.548;13.406;2023-12-04T11:56:30;12.73;;;8.98;;
71821;SDS011;64096;52.548;13.406;2023-12-04T11:59:02;14.20;;;10.02;;
71821;SDS011;64096;52.548;13.406;2023-12-04T12:01:28;16.83;;;11.60;;
71821;SDS011;64096;52.548;13.406;2023-12-04T12:03:57;15.50;;;10.75;;
71821;SDS011;64096;52.548;13.406;2023-12-04T12:06:24;12.50;;;9.15;;
71821;SDS011;64096;52.548;13.406;2023-12-04T12:08:50;12.35;;;8.98;;
71821;SDS011;64096;52.548;13.406;2023-12-04T12:11:16;12.68;;;8.77;;
71821;SDS011;64096;52.548;13.406;2023-12-04T12:13:43;12.85;;;9.05;;
71821;SDS011;64096;52.548;13.406;2023-12-04T12:16:10;15.77;;;10.90;;
71821;SDS011;64096;52.548;13.406;2023-12-04T12:18:36;13.73;;;9.20;;
71821;SDS011;64096;52.548;13.406;2023-12-04T12:21:04;13.98;;;9.57;;
71821;SDS011;64096;52.548;13.406;2023-12-04T12:23:32;12.40;;;8.32;;
71821;SDS011;64096;52.548;13.406;2023-12-04T12:26:01;12.05;;;7.78;;
71821;SDS011;64096;52.548;13.406;2023-12-04T12:28:28;14.27;;;9.88;;
71821;SDS011;64096;52.548;13.406;2023-12-04T12:30:55;14.82;;;9.93;;
71821;SDS011;64096;52.548;13.406;2023-12-04T12:33:21;13.10;;;9.52;;
71821;SDS011;64096;52.548;13.406;2023-12-04T12:35:48;11.35;;;8.40;;
71821;SDS011;64096;52.548;13.406;2023-12-04T12:38:14;11.60;;;8.25;;
71821;SDS011;64096;52.548;13.406;2023-12-04T12:40:40;10.90;;;8.10;;
71821;SDS011;64096;52.548;13.406;2023-12-04T12:43:07;13.23;;;9.00;;
71821;SDS011;64096;52.548;13.406;2023-12-04T12:45:43;11.32;;;8.45;;
71821;SDS011;64096;52.548;13.406;2023-12-04T12:48:12;12.60;;;8.57;;
71821;SDS011;64096;52.548;13.406;2023-12-04T12:50:38;12.52;;;8.85;;
71821;SDS011;64096;52.548;13.406;2023-12-04T12:53:04;11.38;;;8.32;;
71821;SDS011;64096;52.548;13.406;2023-12-04T12:55:30;12.57;;;8.95;;
71821;SDS011;64096;52.548;13.406;2023-12-04T12:57:56;13.32;;;8.63;;
71821;SDS011;64096;52.548;13.406;2023-12-04T13:00:23;12.57;;;8.85;;
71821;SDS011;64096;52.548;13.406;2023-12-04T13:02:52;12.35;;;8.90;;
71821;SDS011;64096;52.548;13.406;2023-12-04T13:05:18;13.25;;;9.18;;
71821;SDS011;64096;52.548;13.406;2023-12-04T13:07:45;15.88;;;10.13;;
71821;SDS011;64096;52.548;13.406;2023-12-04T13:10:11;13.20;;;9.43;;
71821;SDS011;64096;52.548;13.406;2023-12-04T13:12:37;12.48;;;8.82;;
71821;SDS011;64096;52.548;13.406;2023-12-04T13:15:03;13.10;;;9.20;;
71821;SDS011;64096;52.548;13.406;2023-12-04T13:17:30;13.25;;;9.25;;
71821;SDS011;64096;52.548;13.406;2023-12-04T13:19:57;12.98;;;9.45;;
71821;SDS011;64096;52.548;13.406;2023-12-04T13:22:23;12.52;;;8.73;;
71821;SDS011;64096;52.548;13.406;2023-12-04T13:24:50;11.93;;;8.70;;
71821;SDS011;64096;52.548;13.406;2023-12-04T13:27:16;11.93;;;8.80;;
71821;SDS011;64096;52.548;13.406;2023-12-04T13:29:42;12.55;;;9.15;;
71821;SDS011;64096;52.548;13.406;2023-12-04T13:32:08;12.18;;;9.00;;
71821;SDS011;64096;52.548;13.406;2023-12-04T13:34:34;11.93;;;8.13;;
71821;SDS011;64096;52.548;13.406;2023-12-04T13:37:01;12.43;;;8.57;;
71821;SDS011;64096;52.548;13.406;2023-12-04T13:39:27;13.23;;;9.32;;
71821;SDS011;64096;52.548;13.406;2023-12-04T13:42:12;13.40;;;9.18;;
71821;SDS011;64096;52.548;13.406;2023-12-04T13:44:56;13.75;;;9.55;;
71821;SDS011;64096;52.548;13.406;2023-12-04T13:47:22;13.02;;;8.75;;
71821;SDS011;64096;52.548;13.406;2023-12-04T13:49:48;13.40;;;8.63;;
71821;SDS011;64096;52.548;13.406;2023-12-04T13:52:15;12.45;;;8.50;;
71821;SDS011;64096;52.548;13.406;2023-12-04T13:54:45;11.63;;;8.40;;
71821;SDS011;64096;52.548;13.406;2023-12-04T13:57:17;12.90;;;8.70;;
71821;SDS011;64096;52.548;13.406;2023-12-04T13:59:52;14.27;;;9.10;;
